Dallas, TX

11:45 AM CDT on June 26, 2017 (GMT -0500)
Uptown | | Change Station

Elev 452 ft 32.79 °N, 96.81 °W | Updated 5 minutes ago

Overcast
Overcast
80.8 °F
Feels Like 83 °F
N
0.7
Wind Variable Wind from East
Gusts 4.3 mph

Today
High -- | Low -- °F
--% Chance of Precip.
Yesterday
High -- | Low -- °F
Precip. -- in
Pressure 30.15 in
Visibility 10.0 miles
Clouds Scattered Clouds 2200 ft
Mostly Cloudy 4400 ft
Mostly Cloudy 12000 ft
Mostly Cloudy 25000 ft
Heat Index 83 °F
Dew Point 64 °F
Humidity 61%
Rainfall Not available.
Snow Depth Not available.
6:21 AM 8:39 PM
Waxing Crescent, 10% visible
SPECI KDAL 261616Z 11007KT 10SM SCT022 BKN044 BKN120 BKN250 26/19 A3015 RMK AO2 T02560189 $
Pressure 30.15 in
Visibility 10.0 miles
Clouds Scattered Clouds 2200 ft
Mostly Cloudy 4400 ft
Mostly Cloudy 12000 ft
Mostly Cloudy 25000 ft
Heat Index 83 °F
Dew Point 64 °F
Humidity 61%
Rainfall Not available.
Snow Depth Not available.
6:21 AM 8:39 PM
Waxing Crescent, 10% visible
SPECI KDAL 261616Z 11007KT 10SM SCT022 BKN044 BKN120 BKN250 26/19 A3015 RMK AO2 T02560189 $

Get Severe Weather Alerts

Thanks for signing up!

Be on the lookout for a verification email in your inbox.

You'll start receiving the daily forecast at 6 AM.

×

10-Day Weather Forecast

Almanac

Astronomy

Jun. 26, 2017 Rise Set
Actual Time
Civil Twilight
Nautical Twilight
Astronomical Twilight
Moon
Length of Visible Light
Length of Day
Tomorrow will be .
, % of the Moon is Illuminated

Today's Extremes

State Highs State Lows

Community

WunderPhotos

Category 6

Welcome to Category 6. This is the collective home for Weather Underground's featured writeups by Dr. Jeff Masters (right), Bob Henson (left), Chris Burt, and other regular contributors.

Nearby

Air Quality

  Air Quality AQ Index Pollutant
Not available.

Snow Depth

Station Depth Elevation

Earthquake Activity

City Distance Mag. Time & Date
Minimum magnitude displayed is 2.5.

Coastal Water Temperatures

Place Temperature

Stations

Nearby Weather Stations

Station Location Temp. Windchill Dew Point Humidity Wind Precip. Elev Updated Type
                   

Watches & Warnings

There are currently no watches in effect.